sensor_id;sensor_type;location;lat;lon;timestamp;temperature;humidity
12889;DHT22;56848;49.896;11.424;2023-03-23T05:00:29;11.30;99.90
12889;DHT22;56848;49.896;11.424;2023-03-23T05:02:55;11.40;99.90
12889;DHT22;56848;49.896;11.424;2023-03-23T05:05:21;11.20;99.90
12889;DHT22;56848;49.896;11.424;2023-03-23T05:07:48;11.30;99.90
12889;DHT22;56848;49.896;11.424;2023-03-23T05:10:14;11.30;99.90
12889;DHT22;56848;49.896;11.424;2023-03-23T05:12:41;11.40;99.90
12889;DHT22;56848;49.896;11.424;2023-03-23T05:15:08;11.20;99.90
12889;DHT22;56848;49.896;11.424;2023-03-23T05:17:34;11.30;99.90
12889;DHT22;56848;49.896;11.424;2023-03-23T05:20:01;11.40;99.90
12889;DHT22;56848;49.896;11.424;2023-03-23T05:22:29;11.40;99.90
12889;DHT22;56848;49.896;11.424;2023-03-23T05:24:58;11.30;99.90
12889;DHT22;56848;49.896;11.424;2023-03-23T05:27:24;11.40;99.90
12889;DHT22;56848;49.896;11.424;2023-03-23T05:29:53;11.40;99.90
12889;DHT22;56848;49.896;11.424;2023-03-23T05:32:18;11.40;99.90
12889;DHT22;56848;49.896;11.424;2023-03-23T05:34:44;11.50;99.90
12889;DHT22;56848;49.896;11.424;2023-03-23T05:37:10;11.40;99.90
12889;DHT22;56848;49.896;11.424;2023-03-23T05:39:37;11.40;99.90
12889;DHT22;56848;49.896;11.424;2023-03-23T05:42:03;11.40;99.90
12889;DHT22;56848;49.896;11.424;2023-03-23T05:44:29;11.40;99.90
12889;DHT22;56848;49.896;11.424;2023-03-23T05:46:55;11.40;99.90
12889;DHT22;56848;49.896;11.424;2023-03-23T05:49:21;11.60;99.90
12889;DHT22;56848;49.896;11.424;2023-03-23T05:51:47;11.60;99.90
12889;DHT22;56848;49.896;11.424;2023-03-23T05:54:13;11.60;99.90
12889;DHT22;56848;49.896;11.424;2023-03-23T05:56:40;11.50;99.90
12889;DHT22;56848;49.896;11.424;2023-03-23T05:59:06;11.60;99.90
12889;DHT22;56848;49.896;11.424;2023-03-23T06:01:32;11.50;99.90
12889;DHT22;56848;49.896;11.424;2023-03-23T06:03:58;11.50;99.90
12889;DHT22;56848;49.896;11.424;2023-03-23T06:06:26;11.50;99.90
12889;DHT22;56848;49.896;11.424;2023-03-23T06:08:52;11.40;99.90
12889;DHT22;56848;49.896;11.424;2023-03-23T06:11:18;11.40;99.90
12889;DHT22;56848;49.896;11.424;2023-03-23T06:13:44;11.30;99.90
12889;DHT22;56848;49.896;11.424;2023-03-23T06:16:10;11.50;99.90
12889;DHT22;56848;49.896;11.424;2023-03-23T06:18:36;11.60;99.90
12889;DHT22;56848;49.896;11.424;2023-03-23T06:21:03;11.50;99.90
12889;DHT22;56848;49.896;11.424;2023-03-23T06:23:29;11.60;99.90
12889;DHT22;56848;49.896;11.424;2023-03-23T06:25:58;11.80;99.90
12889;DHT22;56848;49.896;11.424;2023-03-23T06:28:24;11.80;99.90
12889;DHT22;56848;49.896;11.424;2023-03-23T06:30:50;11.80;99.90
12889;DHT22;56848;49.896;11.424;2023-03-23T06:33:16;11.80;99.90
12889;DHT22;56848;49.896;11.424;2023-03-23T06:35:42;11.80;99.90
12889;DHT22;56848;49.896;11.424;2023-03-23T06:38:08;11.80;99.90
12889;DHT22;56848;49.896;11.424;2023-03-23T06:40:34;11.60;99.90
12889;DHT22;56848;49.896;11.424;2023-03-23T06:43:01;11.60;99.90
12889;DHT22;56848;49.896;11.424;2023-03-23T06:45:27;11.50;99.90
12889;DHT22;56848;49.896;11.424;2023-03-23T06:47:52;11.50;99.90
12889;DHT22;56848;49.896;11.424;2023-03-23T06:50:18;11.50;99.90
12889;DHT22;56848;49.896;11.424;2023-03-23T06:52:48;11.50;99.90
12889;DHT22;56848;49.896;11.424;2023-03-23T06:55:15;11.60;99.90
12889;DHT22;56848;49.896;11.424;2023-03-23T06:57:41;11.60;99.90
12889;DHT22;56848;49.896;11.424;2023-03-23T07:00:08;11.60;99.90
12889;DHT22;56848;49.896;11.424;2023-03-23T07:02:36;11.60;99.90
12889;DHT22;56848;49.896;11.424;2023-03-23T07:05:02;11.60;99.90
12889;DHT22;56848;49.896;11.424;2023-03-23T07:07:29;11.60;99.90
12889;DHT22;56848;49.896;11.424;2023-03-23T07:09:55;11.50;99.90
12889;DHT22;56848;49.896;11.424;2023-03-23T07:12:20;11.60;99.90
12889;DHT22;56848;49.896;11.424;2023-03-23T07:14:47;11.60;99.90
12889;DHT22;56848;49.896;11.424;2023-03-23T07:17:12;11.70;99.90
12889;DHT22;56848;49.896;11.424;2023-03-23T07:19:38;11.70;99.90
12889;DHT22;56848;49.896;11.424;2023-03-23T07:22:06;11.70;99.90
12889;DHT22;56848;49.896;11.424;2023-03-23T07:24:33;11.70;99.90
12889;DHT22;56848;49.896;11.424;2023-03-23T07:26:59;11.70;99.90
12889;DHT22;56848;49.896;11.424;2023-03-23T07:29:24;11.70;99.90
12889;DHT22;56848;49.896;11.424;2023-03-23T07:31:50;11.90;99.90
12889;DHT22;56848;49.896;11.424;2023-03-23T07:34:17;11.80;99.90
12889;DHT22;56848;49.896;11.424;2023-03-23T07:36:43;11.60;99.90
12889;DHT22;56848;49.896;11.424;2023-03-23T07:39:09;11.90;99.90
12889;DHT22;56848;49.896;11.424;2023-03-23T07:41:34;11.90;99.90
12889;DHT22;56848;49.896;11.424;2023-03-23T07:44:00;11.80;99.90
12889;DHT22;56848;49.896;11.424;2023-03-23T07:46:26;11.80;99.90
12889;DHT22;56848;49.896;11.424;2023-03-23T07:48:52;11.80;99.90
12889;DHT22;56848;49.896;11.424;2023-03-23T07:51:17;11.80;99.90
12889;DHT22;56848;49.896;11.424;2023-03-23T07:53:43;11.90;99.90
12889;DHT22;56848;49.896;11.424;2023-03-23T07:56:12;12.00;99.90
12889;DHT22;56848;49.896;11.424;2023-03-23T07:58:43;12.00;99.90
12889;DHT22;56848;49.896;11.424;2023-03-23T08:01:10;12.00;99.90
12889;DHT22;56848;49.896;11.424;2023-03-23T08:03:36;12.00;99.90
12889;DHT22;56848;49.896;11.424;2023-03-23T08:06:02;12.00;99.90
12889;DHT22;56848;49.896;11.424;2023-03-23T08:08:28;12.00;99.90
12889;DHT22;56848;49.896;11.424;2023-03-23T08:10:55;12.00;99.90
12889;DHT22;56848;49.896;11.424;2023-03-23T08:13:21;12.00;99.90
12889;DHT22;56848;49.896;11.424;2023-03-23T08:15:46;12.00;99.90
12889;DHT22;56848;49.896;11.424;2023-03-23T08:18:12;11.90;99.90
12889;DHT22;56848;49.896;11.424;2023-03-23T08:20:37;11.80;99.90
12889;DHT22;56848;49.896;11.424;2023-03-23T08:23:03;11.80;99.90
12889;DHT22;56848;49.896;11.424;2023-03-23T08:25:30;11.70;99.90
12889;DHT22;56848;49.896;11.424;2023-03-23T08:27:59;11.70;99.90
12889;DHT22;56848;49.896;11.424;2023-03-23T08:30:27;11.70;99.90
12889;DHT22;56848;49.896;11.424;2023-03-23T08:32:56;11.60;99.90
12889;DHT22;56848;49.896;11.424;2023-03-23T08:35:22;11.60;99.90
12889;DHT22;56848;49.896;11.424;2023-03-23T08:37:47;11.60;99.90
12889;DHT22;56848;49.896;11.424;2023-03-23T08:40:17;11.60;99.90
12889;DHT22;56848;49.896;11.424;2023-03-23T08:42:45;11.70;99.90
12889;DHT22;56848;49.896;11.424;2023-03-23T08:45:14;11.80;99.90
12889;DHT22;56848;49.896;11.424;2023-03-23T08:47:40;11.90;99.90
12889;DHT22;56848;49.896;11.424;2023-03-23T08:50:07;11.70;99.90
12889;DHT22;56848;49.896;11.424;2023-03-23T08:52:33;11.70;99.90
12889;DHT22;56848;49.896;11.424;2023-03-23T08:54:59;11.80;99.90
12889;DHT22;56848;49.896;11.424;2023-03-23T08:57:26;11.70;99.90
12889;DHT22;56848;49.896;11.424;2023-03-23T08:59:51;11.70;99.90
12889;DHT22;56848;49.896;11.424;2023-03-23T09:02:20;11.60;99.90
12889;DHT22;56848;49.896;11.424;2023-03-23T09:04:45;11.60;99.90
12889;DHT22;56848;49.896;11.424;2023-03-23T09:07:12;11.60;99.90
12889;DHT22;56848;49.896;11.424;2023-03-23T09:09:40;11.60;99.90
12889;DHT22;56848;49.896;11.424;2023-03-23T09:12:09;11.80;99.90
12889;DHT22;56848;49.896;11.424;2023-03-23T09:14:36;11.90;99.90
12889;DHT22;56848;49.896;11.424;2023-03-23T09:17:02;11.90;99.90
12889;DHT22;56848;49.896;11.424;2023-03-23T09:19:29;11.90;99.90
12889;DHT22;56848;49.896;11.424;2023-03-23T09:21:54;11.90;99.90
12889;DHT22;56848;49.896;11.424;2023-03-23T09:24:20;11.90;99.90
12889;DHT22;56848;49.896;11.424;2023-03-23T09:26:46;11.90;99.90
12889;DHT22;56848;49.896;11.424;2023-03-23T09:29:12;12.00;99.90
12889;DHT22;56848;49.896;11.424;2023-03-23T09:31:38;12.10;99.90
12889;DHT22;56848;49.896;11.424;2023-03-23T09:34:06;12.10;99.90
12889;DHT22;56848;49.896;11.424;2023-03-23T09:36:32;12.00;99.90
12889;DHT22;56848;49.896;11.424;2023-03-23T09:38:58;12.00;99.90
12889;DHT22;56848;49.896;11.424;2023-03-23T09:47:14;12.00;99.90
12889;DHT22;56848;49.896;11.424;2023-03-23T09:50:18;12.00;99.90
12889;DHT22;56848;49.896;11.424;2023-03-23T09:53:02;12.20;99.90
12889;DHT22;56848;49.896;11.424;2023-03-23T09:55:29;12.30;99.90
12889;DHT22;56848;49.896;11.424;2023-03-23T09:58:03;12.60;99.90
12889;DHT22;56848;49.896;11.424;2023-03-23T10:00:41;12.90;99.90
12889;DHT22;56848;49.896;11.424;2023-03-23T10:03:14;13.10;99.90
12889;DHT22;56848;49.896;11.424;2023-03-23T10:05:49;13.20;99.90
12889;DHT22;56848;49.896;11.424;2023-03-23T10:08:17;13.10;99.90
12889;DHT22;56848;49.896;11.424;2023-03-23T10:16:19;13.40;99.90
12889;DHT22;56848;49.896;11.424;2023-03-23T10:19:10;13.40;99.90
12889;DHT22;56848;49.896;11.424;2023-03-23T10:21:45;13.10;99.90
12889;DHT22;56848;49.896;11.424;2023-03-23T10:24:15;13.10;99.90
12889;DHT22;56848;49.896;11.424;2023-03-23T10:33:28;12.80;99.90
12889;DHT22;56848;49.896;11.424;2023-03-23T10:38:38;12.70;99.90
12889;DHT22;56848;49.896;11.424;2023-03-23T10:41:13;12.60;99.90
12889;DHT22;56848;49.896;11.424;2023-03-23T10:43:40;12.70;99.90
12889;DHT22;56848;49.896;11.424;2023-03-23T10:47:13;12.60;99.90
12889;DHT22;56848;49.896;11.424;2023-03-23T10:49:19;12.50;99.90
12889;DHT22;56848;49.896;11.424;2023-03-23T10:52:04;12.50;99.90
12889;DHT22;56848;49.896;11.424;2023-03-23T10:54:50;12.50;99.90
12889;DHT22;56848;49.896;11.424;2023-03-23T10:57:31;12.50;99.90
12889;DHT22;56848;49.896;11.424;2023-03-23T11:05:31;12.60;99.90
12889;DHT22;56848;49.896;11.424;2023-03-23T11:07:59;12.60;99.90
12889;DHT22;56848;49.896;11.424;2023-03-23T11:10:37;12.70;99.90
12889;DHT22;56848;49.896;11.424;2023-03-23T11:13:03;12.70;99.90
12889;DHT22;56848;49.896;11.424;2023-03-23T11:15:35;12.60;99.90
12889;DHT22;56848;49.896;11.424;2023-03-23T11:18:09;12.50;99.90
12889;DHT22;56848;49.896;11.424;2023-03-23T11:20:41;12.40;99.90
12889;DHT22;56848;49.896;11.424;2023-03-23T11:25:54;12.30;99.90
12889;DHT22;56848;49.896;11.424;2023-03-23T11:28:20;12.20;99.90
12889;DHT22;56848;49.896;11.424;2023-03-23T11:30:46;12.20;99.90
12889;DHT22;56848;49.896;11.424;2023-03-23T11:33:12;12.30;99.90
12889;DHT22;56848;49.896;11.424;2023-03-23T11:35:44;12.30;99.90
12889;DHT22;56848;49.896;11.424;2023-03-23T11:38:18;12.40;99.90
12889;DHT22;56848;49.896;11.424;2023-03-23T11:40:50;12.60;99.90
12889;DHT22;56848;49.896;11.424;2023-03-23T11:43:24;12.70;99.90
12889;DHT22;56848;49.896;11.424;2023-03-23T11:46:37;13.00;99.90
12889;DHT22;56848;49.896;11.424;2023-03-23T11:48:43;13.20;99.90
12889;DHT22;56848;49.896;11.424;2023-03-23T11:51:18;13.00;99.90
12889;DHT22;56848;49.896;11.424;2023-03-23T11:53:54;12.90;99.90
12889;DHT22;56848;49.896;11.424;2023-03-23T11:56:34;12.90;99.90
12889;DHT22;56848;49.896;11.424;2023-03-23T11:59:00;12.70;99.90
12889;DHT22;56848;49.896;11.424;2023-03-23T12:01:47;12.60;99.90
12889;DHT22;56848;49.896;11.424;2023-03-23T12:15:21;12.10;99.90
12889;DHT22;56848;49.896;11.424;2023-03-23T12:23:24;12.30;99.90
12889;DHT22;56848;49.896;11.424;2023-03-23T12:32:18;12.60;99.90
12889;DHT22;56848;49.896;11.424;2023-03-23T12:48:05;12.60;99.90
12889;DHT22;56848;49.896;11.424;2023-03-23T12:50:37;12.50;99.90
12889;DHT22;56848;49.896;11.424;2023-03-23T12:53:22;12.50;99.90
12889;DHT22;56848;49.896;11.424;2023-03-23T12:58:37;12.80;99.90
12889;DHT22;56848;49.896;11.424;2023-03-23T13:01:25;13.00;99.90
12889;DHT22;56848;49.896;11.424;2023-03-23T13:04:10;12.90;99.90
12889;DHT22;56848;49.896;11.424;2023-03-23T13:06:39;12.70;99.90
12889;DHT22;56848;49.896;11.424;2023-03-23T13:09:33;12.70;99.90
12889;DHT22;56848;49.896;11.424;2023-03-23T13:12:03;12.80;99.90
12889;DHT22;56848;49.896;11.424;2023-03-23T13:22:39;13.40;99.90
12889;DHT22;56848;49.896;11.424;2023-03-23T13:25:15;13.50;99.90
12889;DHT22;56848;49.896;11.424;2023-03-23T13:27:41;13.50;99.90
12889;DHT22;56848;49.896;11.424;2023-03-23T13:30:19;13.60;99.90
12889;DHT22;56848;49.896;11.424;2023-03-23T13:32:50;13.40;99.90
12889;DHT22;56848;49.896;11.424;2023-03-23T13:35:18;13.30;99.90
12889;DHT22;56848;49.896;11.424;2023-03-23T13:37:50;13.10;99.90
12889;DHT22;56848;49.896;11.424;2023-03-23T13:40:28;13.00;99.90
12889;DHT22;56848;49.896;11.424;2023-03-23T13:42:56;12.90;99.90
12889;DHT22;56848;49.896;11.424;2023-03-23T13:56:07;12.80;99.90
12889;DHT22;56848;49.896;11.424;2023-03-23T13:58:50;12.80;99.90
12889;DHT22;56848;49.896;11.424;2023-03-23T14:01:32;12.80;99.90
12889;DHT22;56848;49.896;11.424;2023-03-23T14:04:01;12.80;99.90
12889;DHT22;56848;49.896;11.424;2023-03-23T14:06:34;12.80;99.90
12889;DHT22;56848;49.896;11.424;2023-03-23T14:09:06;12.90;99.90
12889;DHT22;56848;49.896;11.424;2023-03-23T14:11:45;13.10;99.90
12889;DHT22;56848;49.896;11.424;2023-03-23T14:14:43;13.20;99.90
12889;DHT22;56848;49.896;11.424;2023-03-23T14:17:19;13.20;99.90
12889;DHT22;56848;49.896;11.424;2023-03-23T14:19:49;13.50;99.90
12889;DHT22;56848;49.896;11.424;2023-03-23T14:22:25;13.60;99.90
12889;DHT22;56848;49.896;11.424;2023-03-23T14:24:53;14.00;99.90
12889;DHT22;56848;49.896;11.424;2023-03-23T14:27:23;13.80;99.90
12889;DHT22;56848;49.896;11.424;2023-03-23T14:30:05;13.80;99.90
12889;DHT22;56848;49.896;11.424;2023-03-23T14:32:32;14.00;99.90
12889;DHT22;56848;49.896;11.424;2023-03-23T14:34:59;14.20;99.90
12889;DHT22;56848;49.896;11.424;2023-03-23T14:37:25;14.10;99.90
12889;DHT22;56848;49.896;11.424;2023-03-23T14:39:55;14.00;99.90
12889;DHT22;56848;49.896;11.424;2023-03-23T14:42:30;14.00;99.90
12889;DHT22;56848;49.896;11.424;2023-03-23T14:44:57;14.00;99.90
12889;DHT22;56848;49.896;11.424;2023-03-23T14:47:37;13.90;99.90
12889;DHT22;56848;49.896;11.424;2023-03-23T14:50:06;13.90;99.90
12889;DHT22;56848;49.896;11.424;2023-03-23T14:52:36;13.60;99.90
12889;DHT22;56848;49.896;11.424;2023-03-23T14:55:21;13.70;99.90
12889;DHT22;56848;49.896;11.424;2023-03-23T14:57:48;13.60;99.90
12889;DHT22;56848;49.896;11.424;2023-03-23T15:00:18;13.40;99.90
12889;DHT22;56848;49.896;11.424;2023-03-23T15:02:49;13.30;99.90
12889;DHT22;56848;49.896;11.424;2023-03-23T15:05:28;13.50;99.90
12889;DHT22;56848;49.896;11.424;2023-03-23T15:07:56;13.50;99.90
12889;DHT22;56848;49.896;11.424;2023-03-23T15:10:24;13.40;99.90
12889;DHT22;56848;49.896;11.424;2023-03-23T15:12:51;13.30;99.90
12889;DHT22;56848;49.896;11.424;2023-03-23T15:17:51;13.40;99.90
12889;DHT22;56848;49.896;11.424;2023-03-23T15:20:29;13.30;99.90
12889;DHT22;56848;49.896;11.424;2023-03-23T15:22:56;13.20;99.90
12889;DHT22;56848;49.896;11.424;2023-03-23T15:25:29;13.20;99.90
12889;DHT22;56848;49.896;11.424;2023-03-23T15:28:18;13.10;99.90
12889;DHT22;56848;49.896;11.424;2023-03-23T15:31:11;13.00;99.90
12889;DHT22;56848;49.896;11.424;2023-03-23T15:33:37;13.00;99.90
12889;DHT22;56848;49.896;11.424;2023-03-23T15:36:16;12.90;99.90
12889;DHT22;56848;49.896;11.424;2023-03-23T15:38:44;12.80;99.90
12889;DHT22;56848;49.896;11.424;2023-03-23T15:41:27;12.90;99.90
12889;DHT22;56848;49.896;11.424;2023-03-23T15:43:56;12.80;99.90
12889;DHT22;56848;49.896;11.424;2023-03-23T15:46:28;12.80;99.90
12889;DHT22;56848;49.896;11.424;2023-03-23T15:51:30;12.70;99.90
12889;DHT22;56848;49.896;11.424;2023-03-23T15:53:57;12.70;99.90
12889;DHT22;56848;49.896;11.424;2023-03-23T15:56:24;12.60;99.90
12889;DHT22;56848;49.896;11.424;2023-03-23T15:58:50;12.60;99.90
12889;DHT22;56848;49.896;11.424;2023-03-23T16:01:20;12.60;99.90
12889;DHT22;56848;49.896;11.424;2023-03-23T16:06:19;12.60;99.90
12889;DHT22;56848;49.896;11.424;2023-03-23T16:08:46;12.60;99.90
12889;DHT22;56848;49.896;11.424;2023-03-23T16:11:13;12.60;99.90
12889;DHT22;56848;49.896;11.424;2023-03-23T16:13:39;12.70;99.90
12889;DHT22;56848;49.896;11.424;2023-03-23T16:16:10;12.60;99.90
12889;DHT22;56848;49.896;11.424;2023-03-23T16:18:37;12.60;99.90
12889;DHT22;56848;49.896;11.424;2023-03-23T16:21:02;12.50;99.90
12889;DHT22;56848;49.896;11.424;2023-03-23T16:23:28;12.60;99.90
12889;DHT22;56848;49.896;11.424;2023-03-23T16:25:54;12.50;99.90
12889;DHT22;56848;49.896;11.424;2023-03-23T16:28:19;12.60;99.90
12889;DHT22;56848;49.896;11.424;2023-03-23T16:30:46;12.60;99.90
12889;DHT22;56848;49.896;11.424;2023-03-23T16:33:12;12.60;99.90
12889;DHT22;56848;49.896;11.424;2023-03-23T16:35:38;12.60;99.90
12889;DHT22;56848;49.896;11.424;2023-03-23T16:38:04;12.60;99.90
12889;DHT22;56848;49.896;11.424;2023-03-23T16:40:30;12.50;99.90
12889;DHT22;56848;49.896;11.424;2023-03-23T16:42:56;12.70;99.90
12889;DHT22;56848;49.896;11.424;2023-03-23T16:45:22;12.60;99.90
12889;DHT22;56848;49.896;11.424;2023-03-23T16:47:48;12.50;99.90
12889;DHT22;56848;49.896;11.424;2023-03-23T16:50:17;12.60;99.90
12889;DHT22;56848;49.896;11.424;2023-03-23T16:52:45;12.50;99.90
12889;DHT22;56848;49.896;11.424;2023-03-23T16:55:12;12.50;99.90
12889;DHT22;56848;49.896;11.424;2023-03-23T16:57:39;12.40;99.90
12889;DHT22;56848;49.896;11.424;2023-03-23T17:00:07;12.50;99.90
12889;DHT22;56848;49.896;11.424;2023-03-23T17:02:34;12.40;99.90
12889;DHT22;56848;49.896;11.424;2023-03-23T17:05:00;12.40;99.90
12889;DHT22;56848;49.896;11.424;2023-03-23T17:07:26;12.40;99.90
12889;DHT22;56848;49.896;11.424;2023-03-23T17:09:52;12.30;99.90
12889;DHT22;56848;49.896;11.424;2023-03-23T17:12:18;12.40;99.90
12889;DHT22;56848;49.896;11.424;2023-03-23T17:14:44;12.40;99.90
12889;DHT22;56848;49.896;11.424;2023-03-23T17:17:10;12.30;99.90
12889;DHT22;56848;49.896;11.424;2023-03-23T17:19:35;12.30;99.90
12889;DHT22;56848;49.896;11.424;2023-03-23T17:22:01;12.10;99.90
12889;DHT22;56848;49.896;11.424;2023-03-23T17:24:27;12.10;99.90
12889;DHT22;56848;49.896;11.424;2023-03-23T17:26:53;12.10;99.90
12889;DHT22;56848;49.896;11.424;2023-03-23T17:29:19;12.10;99.90
12889;DHT22;56848;49.896;11.424;2023-03-23T17:31:47;12.00;99.90
12889;DHT22;56848;49.896;11.424;2023-03-23T17:34:12;12.00;99.90
12889;DHT22;56848;49.896;11.424;2023-03-23T17:36:38;12.00;99.90
12889;DHT22;56848;49.896;11.424;2023-03-23T17:39:04;12.10;99.90
12889;DHT22;56848;49.896;11.424;2023-03-23T17:41:29;12.00;99.90
12889;DHT22;56848;49.896;11.424;2023-03-23T17:43:55;12.10;99.90
12889;DHT22;56848;49.896;11.424;2023-03-23T17:46:20;12.00;99.90
12889;DHT22;56848;49.896;11.424;2023-03-23T17:48:46;11.80;99.90
12889;DHT22;56848;49.896;11.424;2023-03-23T17:51:11;11.90;99.90
12889;DHT22;56848;49.896;11.424;2023-03-23T17:53:37;11.90;99.90
12889;DHT22;56848;49.896;11.424;2023-03-23T17:56:04;11.80;99.90
12889;DHT22;56848;49.896;11.424;2023-03-23T17:58:31;11.70;99.90
12889;DHT22;56848;49.896;11.424;2023-03-23T18:00:57;11.80;99.90
12889;DHT22;56848;49.896;11.424;2023-03-23T18:03:23;11.80;99.90
12889;DHT22;56848;49.896;11.424;2023-03-23T18:05:50;11.80;99.90
12889;DHT22;56848;49.896;11.424;2023-03-23T18:08:17;11.70;99.90
12889;DHT22;56848;49.896;11.424;2023-03-23T18:10:43;11.70;99.90
12889;DHT22;56848;49.896;11.424;2023-03-23T18:13:09;11.40;99.90
12889;DHT22;56848;49.896;11.424;2023-03-23T18:15:35;11.30;99.90
12889;DHT22;56848;49.896;11.424;2023-03-23T18:18:03;11.30;99.90
12889;DHT22;56848;49.896;11.424;2023-03-23T18:20:30;11.30;99.90
12889;DHT22;56848;49.896;11.424;2023-03-23T18:22:56;11.30;99.90
12889;DHT22;56848;49.896;11.424;2023-03-23T18:25:22;11.30;99.90
12889;DHT22;56848;49.896;11.424;2023-03-23T18:27:47;11.30;99.90
12889;DHT22;56848;49.896;11.424;2023-03-23T18:30:13;11.30;99.90
12889;DHT22;56848;49.896;11.424;2023-03-23T18:32:39;11.10;99.90
12889;DHT22;56848;49.896;11.424;2023-03-23T18:35:07;11.10;99.90
12889;DHT22;56848;49.896;11.424;2023-03-23T18:37:33;11.10;99.90
12889;DHT22;56848;49.896;11.424;2023-03-23T18:40:00;11.20;99.90
12889;DHT22;56848;49.896;11.424;2023-03-23T18:42:26;11.10;99.90
12889;DHT22;56848;49.896;11.424;2023-03-23T18:44:55;11.20;99.90
12889;DHT22;56848;49.896;11.424;2023-03-23T18:47:24;11.30;99.90
12889;DHT22;56848;49.896;11.424;2023-03-23T18:49:50;11.00;99.90
12889;DHT22;56848;49.896;11.424;2023-03-23T18:52:20;10.90;99.90
12889;DHT22;56848;49.896;11.424;2023-03-23T18:54:46;10.90;99.90
12889;DHT22;56848;49.896;11.424;2023-03-23T18:57:12;10.80;99.90
12889;DHT22;56848;49.896;11.424;2023-03-23T18:59:38;10.80;99.90
12889;DHT22;56848;49.896;11.424;2023-03-23T19:02:04;10.90;99.90
12889;DHT22;56848;49.896;11.424;2023-03-23T19:04:30;11.20;99.90
12889;DHT22;56848;49.896;11.424;2023-03-23T19:06:58;11.30;99.90
12889;DHT22;56848;49.896;11.424;2023-03-23T19:09:23;11.50;99.90
12889;DHT22;56848;49.896;11.424;2023-03-23T19:11:49;11.50;99.90
12889;DHT22;56848;49.896;11.424;2023-03-23T19:14:15;11.60;99.90
12889;DHT22;56848;49.896;11.424;2023-03-23T19:16:42;11.50;99.90
12889;DHT22;56848;49.896;11.424;2023-03-23T19:19:08;11.40;99.90
12889;DHT22;56848;49.896;11.424;2023-03-23T19:21:34;11.40;99.90
12889;DHT22;56848;49.896;11.424;2023-03-23T19:24:01;11.50;99.90
12889;DHT22;56848;49.896;11.424;2023-03-23T19:26:33;11.50;99.90
12889;DHT22;56848;49.896;11.424;2023-03-23T19:28:59;11.50;99.90
12889;DHT22;56848;49.896;11.424;2023-03-23T19:31:25;11.50;99.90
12889;DHT22;56848;49.896;11.424;2023-03-23T19:33:51;11.50;99.90
12889;DHT22;56848;49.896;11.424;2023-03-23T19:36:18;11.60;99.90
12889;DHT22;56848;49.896;11.424;2023-03-23T19:38:44;11.50;99.90
12889;DHT22;56848;49.896;11.424;2023-03-23T19:41:10;11.40;99.90
12889;DHT22;56848;49.896;11.424;2023-03-23T19:43:35;11.40;99.90
12889;DHT22;56848;49.896;11.424;2023-03-23T19:46:01;11.20;99.90
12889;DHT22;56848;49.896;11.424;2023-03-23T19:48:27;10.80;99.90
12889;DHT22;56848;49.896;11.424;2023-03-23T19:50:55;10.70;99.90
12889;DHT22;56848;49.896;11.424;2023-03-23T19:53:22;10.70;99.90
12889;DHT22;56848;49.896;11.424;2023-03-23T19:55:48;10.80;99.90
12889;DHT22;56848;49.896;11.424;2023-03-23T19:58:14;10.70;99.90
12889;DHT22;56848;49.896;11.424;2023-03-23T20:00:40;10.60;99.90
12889;DHT22;56848;49.896;11.424;2023-03-23T20:03:06;10.50;99.90
12889;DHT22;56848;49.896;11.424;2023-03-23T20:05:33;10.40;99.90
12889;DHT22;56848;49.896;11.424;2023-03-23T20:07:59;10.30;99.90
12889;DHT22;56848;49.896;11.424;2023-03-23T20:10:25;10.40;99.90
12889;DHT22;56848;49.896;11.424;2023-03-23T20:12:51;10.30;99.90
12889;DHT22;56848;49.896;11.424;2023-03-23T20:15:16;10.30;99.90
12889;DHT22;56848;49.896;11.424;2023-03-23T20:17:42;10.30;99.90
12889;DHT22;56848;49.896;11.424;2023-03-23T20:20:08;10.30;99.90
12889;DHT22;56848;49.896;11.424;2023-03-23T20:22:34;10.30;99.90
12889;DHT22;56848;49.896;11.424;2023-03-23T20:25:00;10.40;99.90
12889;DHT22;56848;49.896;11.424;2023-03-23T20:27:27;10.40;99.90
12889;DHT22;56848;49.896;11.424;2023-03-23T20:29:54;10.50;99.90
12889;DHT22;56848;49.896;11.424;2023-03-23T20:32:20;10.40;99.90
12889;DHT22;56848;49.896;11.424;2023-03-23T20:34:46;10.30;99.90
12889;DHT22;56848;49.896;11.424;2023-03-23T20:37:14;10.30;99.90
12889;DHT22;56848;49.896;11.424;2023-03-23T20:39:42;10.20;99.90
12889;DHT22;56848;49.896;11.424;2023-03-23T20:42:10;10.30;99.90
12889;DHT22;56848;49.896;11.424;2023-03-23T20:44:35;10.20;99.90
12889;DHT22;56848;49.896;11.424;2023-03-23T20:47:04;10.30;99.90
12889;DHT22;56848;49.896;11.424;2023-03-23T20:49:32;10.20;99.90
12889;DHT22;56848;49.896;11.424;2023-03-23T20:51:59;10.20;99.90
12889;DHT22;56848;49.896;11.424;2023-03-23T20:54:26;10.30;99.90
12889;DHT22;56848;49.896;11.424;2023-03-23T20:56:52;10.30;99.90
